Terminal Aerodrome Forecast
Issued by NWS

Home | Current Version | Previous Version | Text Only | Print | Product List | Glossary Off
Versions: 1 2 3 4 5 6 7 8 9 10 11 12 13

000
FTUS45 KGGW 182322
TAFOLF
TAF
KOLF 182322Z 1900/1924 36006KT P6SM VCSH SCT060 BKN150
     FM191100 VRB04KT P6SM VCSH OVC035
     FM191500 VRB04KT P6SM OVC020
     FM192100 05005KT P6SM SCT025 OVC035=

USA.gov is the U.S. government's official web portal to all federal, state and local government web resources and services.